createdAt,value
2017-11-09T00:00:08.375Z,33.37
2017-11-09T00:02:35.801Z,36.23
2017-11-09T00:08:15.198Z,36.07
2017-11-09T00:10:42.970Z,34.87
2017-11-09T00:13:10.386Z,33.67
2017-11-09T00:15:37.819Z,34.13
2017-11-09T00:18:05.410Z,33.83
2017-11-09T00:20:32.829Z,36.07
2017-11-09T00:23:00.260Z,33.37
2017-11-09T00:25:27.980Z,33.63
2017-11-09T00:27:55.403Z,35.90
2017-11-09T00:30:23.229Z,35.97
2017-11-09T00:32:50.693Z,37.20
2017-11-09T00:35:18.125Z,34.70
2017-11-09T00:37:45.559Z,36.37
2017-11-09T00:40:13.029Z,34.43
2017-11-09T00:42:40.450Z,34.57
2017-11-09T00:45:08.280Z,33.90
2017-11-09T00:47:35.830Z,35.10
2017-11-09T00:50:03.258Z,34.10
2017-11-09T00:52:30.694Z,33.63
2017-11-09T00:54:58.118Z,36.37
2017-11-09T00:57:25.555Z,34.60
2017-11-09T00:59:53.016Z,34.20
2017-11-09T01:02:20.422Z,35.33
2017-11-09T01:04:47.851Z,33.67
2017-11-09T01:07:15.740Z,32.70
2017-11-09T01:09:43.166Z,34.40
2017-11-09T01:12:10.990Z,33.10
2017-11-09T01:14:38.536Z,37.20
2017-11-09T01:17:05.963Z,32.97
2017-11-09T01:19:33.390Z,35.80
2017-11-09T01:22:00.827Z,36.87
2017-11-09T01:24:28.258Z,36.63
2017-11-09T01:26:55.693Z,35.20
2017-11-09T01:29:23.533Z,34.20
2017-11-09T01:31:51.353Z,33.43
2017-11-09T01:34:18.784Z,32.80
2017-11-09T01:36:46.222Z,34.30
2017-11-09T01:39:13.647Z,34.97
2017-11-09T01:41:41.470Z,31.57
2017-11-09T01:44:08.924Z,34.60
2017-11-09T01:46:36.351Z,33.27
2017-11-09T01:49:03.779Z,32.60
2017-11-09T01:51:31.609Z,33.73
2017-11-09T01:53:59.036Z,34.10
2017-11-09T01:56:26.491Z,34.10
2017-11-09T01:58:54.101Z,33.47
2017-11-09T02:01:21.532Z,32.97
2017-11-09T02:03:48.959Z,32.40
2017-11-09T02:06:16.734Z,35.27
2017-11-09T02:08:44.155Z,35.77
2017-11-09T02:11:11.593Z,35.17
2017-11-09T02:13:39.415Z,34.00
2017-11-09T02:16:06.838Z,32.67
2017-11-09T02:18:34.266Z,32.10
2017-11-09T02:21:02.107Z,33.50
2017-11-09T02:23:29.531Z,34.37
2017-11-09T02:25:56.969Z,33.40
2017-11-09T02:28:24.402Z,31.27
2017-11-09T02:30:52.219Z,33.20
2017-11-09T02:33:20.569Z,31.60
2017-11-09T02:35:48.003Z,33.67
2017-11-09T02:38:15.427Z,34.00
2017-11-09T02:40:43.154Z,34.03
2017-11-09T02:43:10.586Z,31.43
2017-11-09T02:45:38.013Z,30.37
2017-11-09T02:48:05.861Z,30.97
2017-11-09T02:50:33.297Z,32.10
2017-11-09T02:53:00.726Z,32.97
2017-11-09T02:55:28.197Z,34.37
2017-11-09T02:57:55.632Z,30.33
2017-11-09T03:00:23.050Z,34.10
2017-11-09T03:02:50.899Z,34.63
2017-11-09T03:05:18.342Z,34.80
2017-11-09T03:07:45.766Z,33.33
2017-11-09T03:10:13.276Z,34.50
2017-11-09T03:12:40.695Z,31.23
2017-11-09T03:15:08.142Z,32.40
2017-11-09T03:17:35.570Z,33.60
2017-11-09T03:20:02.999Z,31.33
2017-11-09T03:22:31.750Z,33.80
2017-11-09T03:24:59.173Z,31.30
2017-11-09T03:27:26.594Z,34.03
2017-11-09T03:29:54.425Z,33.47
2017-11-09T03:32:21.861Z,33.63
2017-11-09T03:34:49.621Z,34.53
2017-11-09T03:37:17.042Z,33.63
2017-11-09T03:39:44.473Z,32.83
2017-11-09T03:42:12.028Z,31.17
2017-11-09T03:44:39.450Z,31.37
2017-11-09T03:47:06.883Z,31.90
2017-11-09T03:49:34.357Z,31.90
2017-11-09T03:52:01.782Z,33.60
2017-11-09T03:54:29.206Z,35.00
2017-11-09T03:56:57.066Z,33.00
2017-11-09T03:59:24.494Z,33.87
2017-11-09T04:01:51.930Z,31.90
2017-11-09T04:04:19.435Z,34.20
2017-11-09T04:06:46.832Z,31.67
2017-11-09T04:09:14.262Z,31.77
2017-11-09T04:11:42.090Z,34.30
2017-11-09T04:14:09.539Z,33.20
2017-11-09T04:16:37.006Z,32.00
2017-11-09T04:19:04.430Z,34.17
2017-11-09T04:21:31.853Z,38.57
2017-11-09T04:23:59.611Z,40.60
2017-11-09T04:26:27.121Z,36.70
2017-11-09T04:28:54.554Z,34.00
2017-11-09T04:31:22.029Z,35.40
2017-11-09T04:33:49.468Z,33.73
2017-11-09T04:36:16.881Z,34.50
2017-11-09T04:38:44.444Z,33.53
2017-11-09T04:41:11.865Z,32.63
2017-11-09T04:43:39.286Z,31.77
2017-11-09T04:46:06.710Z,34.60
2017-11-09T04:48:34.463Z,33.40
2017-11-09T04:51:02.284Z,34.50
2017-11-09T04:53:29.702Z,34.83
2017-11-09T04:55:57.258Z,33.10
2017-11-09T04:58:24.681Z,34.63
2017-11-09T05:00:52.510Z,33.90
2017-11-09T05:03:19.955Z,35.07
2017-11-09T05:05:47.386Z,35.10
2017-11-09T05:08:14.810Z,31.53
2017-11-09T05:10:42.651Z,32.83
2017-11-09T05:13:10.078Z,35.73
2017-11-09T05:15:37.502Z,32.70
2017-11-09T05:18:05.045Z,35.10
2017-11-09T05:20:32.882Z,34.70
2017-11-09T05:23:00.306Z,35.07
2017-11-09T05:25:27.765Z,33.40
2017-11-09T05:27:55.182Z,33.83
2017-11-09T05:30:22.606Z,34.97
2017-11-09T05:32:50.330Z,33.00
2017-11-09T05:35:17.773Z,33.83
2017-11-09T05:37:45.194Z,35.00
2017-11-09T05:40:13.143Z,35.87
2017-11-09T05:42:40.565Z,34.77
2017-11-09T05:45:08.004Z,34.30
2017-11-09T05:47:35.562Z,34.70
2017-11-09T05:50:02.994Z,33.20
2017-11-09T05:52:30.435Z,34.60
2017-11-09T05:54:58.294Z,37.00
2017-11-09T05:57:26.126Z,33.87
2017-11-09T05:59:53.558Z,36.00
2017-11-09T06:02:21.370Z,34.33
2017-11-09T06:04:48.807Z,36.03
2017-11-09T06:07:16.249Z,38.10
2017-11-09T06:09:43.679Z,33.20
2017-11-09T06:12:11.122Z,35.40
2017-11-09T06:14:38.862Z,37.40
2017-11-09T06:17:06.689Z,35.37
2017-11-09T06:19:34.134Z,34.87
2017-11-09T06:22:01.589Z,34.00
2017-11-09T06:24:29.024Z,36.23
2017-11-09T06:26:56.454Z,35.30
2017-11-09T06:29:24.639Z,37.10
2017-11-09T06:31:52.073Z,38.10
2017-11-09T06:34:19.902Z,37.03
2017-11-09T06:36:47.344Z,36.87
2017-11-09T06:39:14.782Z,36.30
2017-11-09T06:41:42.339Z,37.07
2017-11-09T06:44:09.770Z,37.17
2017-11-09T06:46:37.202Z,38.13
2017-11-09T06:49:05.075Z,37.30
2017-11-09T06:51:32.893Z,38.80
2017-11-09T06:54:00.328Z,35.97
2017-11-09T06:56:28.097Z,37.07
2017-11-09T06:58:55.529Z,37.13
2017-11-09T07:01:22.953Z,36.20
2017-11-09T07:03:50.847Z,34.73
2017-11-09T07:06:18.266Z,34.63
2017-11-09T07:08:45.715Z,37.90
2017-11-09T07:11:13.159Z,36.70
2017-11-09T07:13:40.591Z,44.90
2017-11-09T07:16:08.023Z,34.67
2017-11-09T07:18:35.639Z,35.40
2017-11-09T07:21:03.065Z,38.00
2017-11-09T07:23:30.501Z,36.17
2017-11-09T07:25:58.051Z,37.23
2017-11-09T07:28:25.478Z,34.20
2017-11-09T07:30:53.307Z,37.37
2017-11-09T07:33:20.748Z,36.67
2017-11-09T07:35:48.174Z,36.57
2017-11-09T07:38:15.606Z,37.40
2017-11-09T07:40:43.438Z,37.43
2017-11-09T07:43:10.875Z,38.90
2017-11-09T07:45:38.420Z,36.23
2017-11-09T07:48:05.855Z,37.20
2017-11-09T07:50:33.287Z,37.70
2017-11-09T07:53:01.407Z,36.20
2017-11-09T07:55:28.833Z,36.97
2017-11-09T07:57:56.293Z,37.53
2017-11-09T08:00:24.339Z,37.93
2017-11-09T08:02:51.766Z,39.03
2017-11-09T08:05:19.186Z,34.60
2017-11-09T08:07:46.663Z,36.63
2017-11-09T08:10:14.113Z,35.03
2017-11-09T08:12:41.542Z,39.47
2017-11-09T08:15:08.974Z,35.53
2017-11-09T08:17:36.802Z,37.90
2017-11-09T08:20:04.265Z,33.03
2017-11-09T08:22:31.679Z,33.60
2017-11-09T08:25:02.709Z,36.50
2017-11-09T08:27:32.594Z,36.93
2017-11-09T08:30:02.265Z,36.00
2017-11-09T08:32:30.256Z,37.80
2017-11-09T08:34:57.694Z,34.80
2017-11-09T08:37:25.133Z,37.67
2017-11-09T08:39:52.570Z,35.00
2017-11-09T08:42:19.997Z,35.13
2017-11-09T08:44:47.928Z,35.43
2017-11-09T08:47:15.362Z,35.13
2017-11-09T08:49:42.803Z,34.93
2017-11-09T08:52:10.238Z,34.10
2017-11-09T08:54:37.668Z,36.07
2017-11-09T08:57:05.482Z,35.33
2017-11-09T08:59:33.039Z,35.87
2017-11-09T09:02:00.480Z,34.63
2017-11-09T09:04:27.903Z,34.20
2017-11-09T09:06:55.737Z,34.73
2017-11-09T09:09:23.158Z,34.60
2017-11-09T09:11:50.595Z,35.07
2017-11-09T09:14:18.054Z,36.63
2017-11-09T09:16:45.486Z,37.53
2017-11-09T09:19:13.703Z,34.57
2017-11-09T09:21:42.670Z,35.70
2017-11-09T09:24:14.558Z,37.50
2017-11-09T09:51:16.207Z,35.50
2017-11-09T09:53:44.053Z,39.43
2017-11-09T09:56:11.521Z,39.10
2017-11-09T09:58:39.351Z,39.00
2017-11-09T10:01:06.814Z,36.90
2017-11-09T10:03:34.278Z,39.57
2017-11-09T10:06:01.731Z,39.43
2017-11-09T10:08:29.186Z,39.10
2017-11-09T10:10:56.801Z,40.03
2017-11-09T10:13:24.271Z,38.47
2017-11-09T10:15:51.698Z,39.80
2017-11-09T10:18:20.435Z,37.97
2017-11-09T10:20:47.864Z,38.20
2017-11-09T10:23:15.285Z,39.67
2017-11-09T10:25:42.815Z,41.03
2017-11-09T10:28:11.163Z,40.57
2017-11-09T10:30:38.595Z,39.67
2017-11-09T10:33:06.894Z,39.40
2017-11-09T10:35:34.323Z,39.93
2017-11-09T10:38:01.770Z,38.10
2017-11-09T10:40:29.254Z,40.83
2017-11-09T10:42:56.688Z,39.50
2017-11-09T10:45:24.136Z,38.40
2017-11-09T10:47:51.983Z,41.07
2017-11-09T10:50:19.471Z,39.50
2017-11-09T10:52:46.878Z,38.97
2017-11-09T10:55:14.723Z,36.50
2017-11-09T10:57:42.147Z,41.07
2017-11-09T11:00:11.134Z,38.67
2017-11-09T11:02:39.070Z,40.37
2017-11-09T11:05:06.586Z,42.00
2017-11-09T11:07:34.374Z,38.60
2017-11-09T11:10:02.286Z,41.33
2017-11-09T11:12:30.075Z,41.20
2017-11-09T11:14:57.824Z,40.30
2017-11-09T11:17:25.978Z,39.23
2017-11-09T11:19:53.451Z,39.43
2017-11-09T11:22:20.943Z,42.10
2017-11-09T11:24:49.181Z,39.03
2017-11-09T11:27:26.160Z,37.17
2017-11-09T11:29:54.655Z,38.30
2017-11-09T11:32:23.965Z,40.17
2017-11-09T11:34:51.447Z,42.03
2017-11-09T11:37:18.957Z,35.13
2017-11-09T11:39:46.436Z,37.17
2017-11-09T11:42:13.900Z,37.57
2017-11-09T11:44:42.675Z,38.13
2017-11-09T11:47:10.214Z,38.07
2017-11-09T11:49:37.648Z,40.92
2017-11-09T11:52:05.731Z,42.97
2017-11-09T11:54:33.384Z,45.38
2017-11-09T11:57:00.868Z,40.67
2017-11-09T11:59:28.363Z,38.50
2017-11-09T12:01:56.013Z,39.33
2017-11-09T12:04:29.971Z,40.03
2017-11-09T12:06:59.631Z,40.10
2017-11-09T12:09:27.576Z,36.80
2017-11-09T12:11:59.854Z,40.67
2017-11-09T12:14:27.731Z,36.87
2017-11-09T12:16:55.565Z,35.93
2017-11-09T12:19:22.995Z,35.10
2017-11-09T12:21:51.398Z,37.63
2017-11-09T12:24:18.877Z,39.10
2017-11-09T12:26:46.720Z,35.10
2017-11-09T12:29:14.207Z,39.00
2017-11-09T12:31:41.691Z,35.60
2017-11-09T12:34:09.196Z,35.40
2017-11-09T12:36:37.072Z,35.77
2017-11-09T12:39:07.800Z,34.83
2017-11-09T12:41:35.327Z,38.63
2017-11-09T12:44:02.779Z,35.47
2017-11-09T12:46:31.267Z,38.40
2017-11-09T12:48:59.651Z,37.43
2017-11-09T12:51:27.823Z,40.17
2017-11-09T12:53:55.469Z,36.90
2017-11-09T12:56:22.919Z,35.90
2017-11-09T12:58:50.411Z,37.97
2017-11-09T13:01:17.863Z,37.40
2017-11-09T13:03:45.711Z,35.20
2017-11-09T13:06:13.214Z,36.57
2017-11-09T13:08:40.659Z,38.13
2017-11-09T13:11:08.094Z,35.50
2017-11-09T13:13:35.567Z,35.70
2017-11-09T13:16:03.010Z,38.10
2017-11-09T13:18:30.862Z,36.47
2017-11-09T13:20:59.770Z,37.63
2017-11-09T13:23:27.627Z,37.37
2017-11-09T13:25:55.483Z,36.30
2017-11-09T13:28:24.158Z,34.60
2017-11-09T13:30:52.012Z,38.20
2017-11-09T13:33:19.465Z,37.23
2017-11-09T13:35:47.083Z,35.83
2017-11-09T13:38:14.759Z,34.60
2017-11-09T13:40:42.202Z,36.60
2017-11-09T13:43:10.573Z,35.97
2017-11-09T13:45:40.948Z,36.67
2017-11-09T13:48:08.376Z,33.40
2017-11-09T13:50:35.845Z,36.20
2017-11-09T13:53:03.492Z,33.30
2017-11-09T13:55:30.967Z,34.50
2017-11-09T13:57:58.401Z,33.80
2017-11-09T14:00:27.647Z,36.77
2017-11-09T14:02:55.544Z,34.70
2017-11-09T14:05:23.714Z,33.37
2017-11-09T14:07:51.138Z,37.13
2017-11-09T14:10:20.501Z,35.47
2017-11-09T14:12:48.475Z,33.97
2017-11-09T14:15:16.216Z,34.70
2017-11-09T14:17:43.734Z,35.50
2017-11-09T14:20:11.550Z,35.67
2017-11-09T14:22:39.010Z,34.20
2017-11-09T14:25:06.442Z,32.80
2017-11-09T14:27:33.887Z,35.40
2017-11-09T14:30:02.071Z,36.20
2017-11-09T14:32:29.510Z,39.77
2017-11-09T14:34:56.957Z,34.90
2017-11-09T14:37:24.418Z,34.33
2017-11-09T14:39:51.874Z,37.07
2017-11-09T14:42:19.307Z,37.73
2017-11-09T14:44:46.789Z,38.33
2017-11-09T14:47:18.075Z,37.60
2017-11-09T14:49:47.030Z,37.80
2017-11-09T14:52:14.681Z,38.40
2017-11-09T14:54:42.278Z,38.40
2017-11-09T14:57:09.731Z,39.37
2017-11-09T14:59:37.186Z,36.60
2017-11-09T15:02:04.934Z,36.20
2017-11-09T15:04:32.374Z,40.47
2017-11-09T15:06:59.813Z,41.83
2017-11-09T15:09:28.939Z,39.90
2017-11-09T15:11:56.375Z,42.30
2017-11-09T15:14:23.813Z,42.30
2017-11-09T15:16:51.255Z,44.63
2017-11-09T15:19:18.677Z,45.43
2017-11-09T15:21:46.193Z,40.80
2017-11-09T15:24:13.662Z,43.50
2017-11-09T15:26:41.099Z,43.97
2017-11-09T15:29:08.540Z,43.00
2017-11-09T15:31:43.507Z,41.20
2017-11-09T15:34:11.406Z,42.13
2017-11-09T15:36:40.932Z,41.80
2017-11-09T15:39:08.418Z,44.90
2017-11-09T15:41:51.110Z,44.97
2017-11-09T15:44:19.012Z,43.33
2017-11-09T15:46:46.465Z,43.00
2017-11-09T15:49:13.999Z,44.60
2017-11-09T15:51:41.452Z,43.77
2017-11-09T15:54:08.906Z,44.63
2017-11-09T15:56:37.200Z,45.13
2017-11-09T15:59:05.662Z,39.60
2017-11-09T16:01:33.111Z,44.77
2017-11-09T16:04:00.580Z,43.17
2017-11-09T16:06:28.071Z,44.00
2017-11-09T16:08:55.560Z,41.37
2017-11-09T16:11:23.574Z,42.00
2017-11-09T16:13:51.033Z,39.60
2017-11-09T16:16:18.511Z,43.17
2017-11-09T16:18:46.037Z,43.70
2017-11-09T16:21:13.726Z,43.10
2017-11-09T16:23:41.574Z,41.23
2017-11-09T16:26:09.015Z,42.47
2017-11-09T16:28:36.480Z,44.03
2017-11-09T16:31:03.926Z,43.80
2017-11-09T16:33:31.482Z,44.63
2017-11-09T16:35:58.925Z,43.07
2017-11-09T16:38:26.367Z,38.13
2017-11-09T16:40:54.150Z,41.23
2017-11-09T16:43:21.596Z,39.80
2017-11-09T16:45:49.034Z,39.83
2017-11-09T16:48:16.514Z,43.37
2017-11-09T16:50:44.130Z,38.70
2017-11-09T16:53:11.974Z,40.53
2017-11-09T16:55:41.348Z,42.63
2017-11-09T16:58:08.812Z,39.83
2017-11-09T17:00:36.250Z,38.63
2017-11-09T17:03:03.685Z,40.40
2017-11-09T17:05:31.479Z,38.10
2017-11-09T17:07:58.903Z,37.33
2017-11-09T17:10:26.352Z,40.90
2017-11-09T17:12:53.813Z,41.57
2017-11-09T17:15:21.247Z,39.60
2017-11-09T17:17:49.082Z,37.27
2017-11-09T17:20:16.548Z,38.67
2017-11-09T17:22:44.391Z,36.43
2017-11-09T17:25:11.842Z,38.80
2017-11-09T17:27:39.311Z,38.00
2017-11-09T17:30:06.741Z,37.63
2017-11-09T17:32:34.199Z,34.10
2017-11-09T17:35:01.697Z,42.17
2017-11-09T17:37:29.529Z,42.90
2017-11-09T17:39:56.983Z,41.57
2017-11-09T17:42:27.601Z,40.53
2017-11-09T17:44:55.050Z,37.33
2017-11-09T17:47:22.498Z,35.70
2017-11-09T17:49:49.988Z,39.23
2017-11-09T17:52:17.436Z,35.80
2017-11-09T17:54:44.871Z,39.77
2017-11-09T17:57:12.466Z,39.57
2017-11-09T17:59:42.119Z,41.53
2017-11-09T18:02:09.571Z,42.17
2017-11-09T18:04:38.223Z,35.17
2017-11-09T18:07:06.047Z,41.37
2017-11-09T18:09:33.496Z,41.50
2017-11-09T18:12:00.977Z,40.63
2017-11-09T18:14:28.422Z,42.07
2017-11-09T18:16:55.863Z,41.27
2017-11-09T18:19:23.627Z,43.67
2017-11-09T18:21:51.069Z,47.50
2017-11-09T18:24:18.514Z,45.60
2017-11-09T18:26:45.980Z,44.93
2017-11-09T18:29:13.422Z,40.63
2017-11-09T18:31:41.641Z,44.30
2017-11-09T18:34:09.126Z,43.67
2017-11-09T18:36:36.957Z,45.80
2017-11-09T18:39:04.439Z,46.50
2017-11-09T18:41:32.282Z,42.13
2017-11-09T18:44:00.120Z,45.17
2017-11-09T18:46:27.565Z,44.40
2017-11-09T18:48:55.014Z,43.47
2017-11-09T18:51:22.785Z,43.90
2017-11-09T18:53:50.234Z,41.33
2017-11-09T18:56:17.676Z,39.50
2017-11-09T18:58:46.141Z,39.13
2017-11-09T19:01:13.589Z,41.70
2017-11-09T19:03:41.064Z,43.80
2017-11-09T19:06:08.741Z,41.37
2017-11-09T19:08:36.178Z,43.33
2017-11-09T19:11:03.635Z,46.10
2017-11-09T19:13:31.082Z,43.30
2017-11-09T19:15:58.552Z,41.37
2017-11-09T19:18:26.042Z,39.87
2017-11-09T19:20:53.502Z,45.07
2017-11-09T19:23:20.968Z,46.53
2017-11-09T19:25:48.473Z,39.47
2017-11-09T19:28:16.625Z,41.67
2017-11-09T19:30:44.163Z,40.33
2017-11-09T19:33:12.102Z,35.97
2017-11-09T19:35:39.561Z,46.30
2017-11-09T19:38:07.044Z,43.90
2017-11-09T19:40:35.017Z,45.07
2017-11-09T19:43:02.480Z,41.10
2017-11-09T19:45:31.338Z,42.90
2017-11-09T19:47:58.829Z,46.17
2017-11-09T19:50:26.323Z,47.13
2017-11-09T19:52:53.783Z,44.30
2017-11-09T19:55:21.421Z,47.60
2017-11-09T19:57:48.867Z,41.20
2017-11-09T20:00:16.348Z,42.80
2017-11-09T20:02:43.871Z,44.57
2017-11-09T20:05:11.321Z,46.20
2017-11-09T20:07:38.860Z,43.90
2017-11-09T20:10:07.627Z,37.97
2017-11-09T20:12:35.069Z,44.20
2017-11-09T20:15:02.615Z,41.10
2017-11-09T20:17:30.069Z,38.27
2017-11-09T20:19:57.570Z,36.13
2017-11-09T20:22:25.423Z,38.23
2017-11-09T20:24:52.873Z,39.80
2017-11-09T20:27:20.321Z,40.27
2017-11-09T20:29:48.603Z,42.20
2017-11-09T20:32:16.090Z,42.10
2017-11-09T20:34:43.523Z,37.10
2017-11-09T20:37:11.379Z,39.47
2017-11-09T20:39:38.827Z,44.77
2017-11-09T20:42:06.355Z,44.60
2017-11-09T20:44:33.811Z,42.17
2017-11-09T20:47:01.272Z,46.20
2017-11-09T20:49:35.376Z,48.13
2017-11-09T20:52:02.845Z,43.20
2017-11-09T20:54:30.292Z,46.90
2017-11-09T20:56:57.783Z,46.20
2017-11-09T20:59:25.642Z,40.53
2017-11-09T21:01:53.103Z,44.63
2017-11-09T21:04:20.976Z,46.40
2017-11-09T21:06:48.843Z,42.50
2017-11-09T21:09:16.303Z,45.87
2017-11-09T21:11:43.786Z,44.27
2017-11-09T21:14:11.231Z,40.00
2017-11-09T21:16:40.502Z,39.73
2017-11-09T21:19:08.607Z,48.83
2017-11-09T21:21:39.509Z,44.27
2017-11-09T21:24:07.351Z,38.70
2017-11-09T21:26:34.815Z,48.63
2017-11-09T21:29:02.566Z,47.60
2017-11-09T21:31:30.125Z,44.50
2017-11-09T21:33:57.593Z,45.03
2017-11-09T21:36:25.846Z,44.10
2017-11-09T21:38:53.370Z,49.90
2017-11-09T21:41:21.843Z,46.20
2017-11-09T21:43:49.411Z,45.53
2017-11-09T21:46:16.855Z,47.10
2017-11-09T21:48:44.308Z,44.67
2017-11-09T21:51:12.143Z,48.20
2017-11-09T21:53:41.526Z,43.33
2017-11-09T21:56:09.201Z,42.60
2017-11-09T21:58:37.033Z,43.20
2017-11-09T22:01:04.678Z,41.93
2017-11-09T22:03:32.134Z,44.00
2017-11-09T22:05:59.578Z,42.13
2017-11-09T22:08:27.038Z,43.53
2017-11-09T22:10:54.478Z,42.87
2017-11-09T22:13:23.662Z,40.70
2017-11-09T22:15:51.213Z,42.77
2017-11-09T22:18:20.076Z,40.57
2017-11-09T22:20:48.234Z,40.13
2017-11-09T22:23:15.685Z,40.23
2017-11-09T22:25:43.130Z,40.57
2017-11-09T22:28:12.378Z,39.87
2017-11-09T22:30:39.814Z,36.63
2017-11-09T22:33:07.660Z,35.67
2017-11-09T22:35:36.912Z,36.47
2017-11-09T22:38:04.406Z,38.60
2017-11-09T22:40:31.858Z,38.53
2017-11-09T22:42:59.346Z,39.70
2017-11-09T22:45:27.258Z,38.90
2017-11-09T22:47:54.702Z,40.33
2017-11-09T22:50:23.718Z,37.47
2017-11-09T22:52:51.154Z,37.63
2017-11-09T22:55:19.434Z,35.80
2017-11-09T22:57:48.376Z,38.13
2017-11-09T23:00:16.233Z,36.00
2017-11-09T23:02:43.669Z,36.73
2017-11-09T23:05:11.114Z,36.30
2017-11-09T23:07:38.874Z,36.60
2017-11-09T23:10:06.303Z,35.00
2017-11-09T23:12:33.747Z,35.17
2017-11-09T23:15:01.204Z,34.50
2017-11-09T23:17:28.647Z,36.47
2017-11-09T23:19:56.074Z,36.53
2017-11-09T23:22:23.530Z,35.47
2017-11-09T23:24:51.146Z,36.97
2017-11-09T23:27:18.589Z,35.30
2017-11-09T23:29:46.179Z,36.27
2017-11-09T23:32:13.626Z,37.20
2017-11-09T23:34:41.057Z,35.50
2017-11-09T23:37:08.759Z,35.93
2017-11-09T23:39:36.197Z,38.00
2017-11-09T23:42:05.583Z,33.80
2017-11-09T23:44:33.033Z,37.27
2017-11-09T23:47:00.466Z,35.73
2017-11-09T23:49:28.006Z,37.77
2017-11-09T23:51:55.857Z,35.20
2017-11-09T23:54:23.283Z,38.10
2017-11-09T23:56:50.712Z,35.33
2017-11-09T23:59:18.151Z,38.67
